sensor_id;sensor_type;location;lat;lon;timestamp;P1;durP1;ratioP1;P2;durP2;ratioP2
6089;SDS011;3073;42.660;23.316;2023-04-25T00:00:49;3.70;;;3.20;;
6089;SDS011;3073;42.660;23.316;2023-04-25T00:03:18;8.00;;;3.33;;
6089;SDS011;3073;42.660;23.316;2023-04-25T00:05:47;3.97;;;3.57;;
6089;SDS011;3073;42.660;23.316;2023-04-25T00:08:14;3.43;;;2.70;;
6089;SDS011;3073;42.660;23.316;2023-04-25T00:10:41;4.70;;;3.60;;
6089;SDS011;3073;42.660;23.316;2023-04-25T00:13:08;3.80;;;3.50;;
6089;SDS011;3073;42.660;23.316;2023-04-25T00:15:36;3.93;;;3.53;;
6089;SDS011;3073;42.660;23.316;2023-04-25T00:18:03;4.13;;;3.23;;
6089;SDS011;3073;42.660;23.316;2023-04-25T00:20:32;3.67;;;3.20;;
6089;SDS011;3073;42.660;23.316;2023-04-25T00:22:59;4.33;;;2.40;;
6089;SDS011;3073;42.660;23.316;2023-04-25T00:25:26;3.53;;;2.63;;
6089;SDS011;3073;42.660;23.316;2023-04-25T00:27:54;3.57;;;2.37;;
6089;SDS011;3073;42.660;23.316;2023-04-25T00:30:21;4.50;;;3.27;;
6089;SDS011;3073;42.660;23.316;2023-04-25T00:32:48;3.80;;;3.10;;
6089;SDS011;3073;42.660;23.316;2023-04-25T00:35:15;7.17;;;4.33;;
6089;SDS011;3073;42.660;23.316;2023-04-25T00:37:44;7.57;;;4.10;;
6089;SDS011;3073;42.660;23.316;2023-04-25T00:40:11;4.67;;;3.83;;
6089;SDS011;3073;42.660;23.316;2023-04-25T00:42:38;8.03;;;5.00;;
6089;SDS011;3073;42.660;23.316;2023-04-25T00:45:07;4.90;;;4.10;;
6089;SDS011;3073;42.660;23.316;2023-04-25T00:47:38;10.73;;;4.43;;
6089;SDS011;3073;42.660;23.316;2023-04-25T00:50:13;7.67;;;5.00;;
6089;SDS011;3073;42.660;23.316;2023-04-25T00:52:50;8.27;;;5.00;;
6089;SDS011;3073;42.660;23.316;2023-04-25T00:55:24;6.90;;;4.50;;
6089;SDS011;3073;42.660;23.316;2023-04-25T00:57:51;6.37;;;4.50;;
6089;SDS011;3073;42.660;23.316;2023-04-25T01:00:20;8.63;;;5.10;;
6089;SDS011;3073;42.660;23.316;2023-04-25T01:02:47;8.33;;;5.30;;
6089;SDS011;3073;42.660;23.316;2023-04-25T01:05:14;9.67;;;5.73;;
6089;SDS011;3073;42.660;23.316;2023-04-25T01:07:43;9.37;;;5.93;;
6089;SDS011;3073;42.660;23.316;2023-04-25T01:10:12;8.03;;;5.03;;
6089;SDS011;3073;42.660;23.316;2023-04-25T01:12:39;11.50;;;5.57;;
6089;SDS011;3073;42.660;23.316;2023-04-25T01:15:06;10.93;;;6.03;;
6089;SDS011;3073;42.660;23.316;2023-04-25T01:17:34;10.23;;;5.07;;
6089;SDS011;3073;42.660;23.316;2023-04-25T01:20:02;8.23;;;4.70;;
6089;SDS011;3073;42.660;23.316;2023-04-25T01:22:31;7.57;;;4.23;;
6089;SDS011;3073;42.660;23.316;2023-04-25T01:24:58;8.70;;;5.90;;
6089;SDS011;3073;42.660;23.316;2023-04-25T01:27:25;10.70;;;5.07;;
6089;SDS011;3073;42.660;23.316;2023-04-25T01:29:53;9.17;;;5.20;;
6089;SDS011;3073;42.660;23.316;2023-04-25T01:32:20;8.80;;;5.57;;
6089;SDS011;3073;42.660;23.316;2023-04-25T01:34:48;7.63;;;4.60;;
6089;SDS011;3073;42.660;23.316;2023-04-25T01:37:16;6.27;;;4.70;;
6089;SDS011;3073;42.660;23.316;2023-04-25T01:39:44;8.40;;;5.30;;
6089;SDS011;3073;42.660;23.316;2023-04-25T01:42:11;9.90;;;5.87;;
6089;SDS011;3073;42.660;23.316;2023-04-25T01:44:39;6.90;;;5.07;;
6089;SDS011;3073;42.660;23.316;2023-04-25T01:47:06;7.43;;;5.07;;
6089;SDS011;3073;42.660;23.316;2023-04-25T01:49:33;9.40;;;5.47;;
6089;SDS011;3073;42.660;23.316;2023-04-25T01:52:00;8.30;;;5.63;;
6089;SDS011;3073;42.660;23.316;2023-04-25T01:54:27;7.60;;;4.57;;
6089;SDS011;3073;42.660;23.316;2023-04-25T01:56:56;8.37;;;3.93;;
6089;SDS011;3073;42.660;23.316;2023-04-25T01:59:23;6.23;;;4.30;;
6089;SDS011;3073;42.660;23.316;2023-04-25T02:01:51;7.57;;;5.30;;
6089;SDS011;3073;42.660;23.316;2023-04-25T02:04:17;5.90;;;4.73;;
6089;SDS011;3073;42.660;23.316;2023-04-25T02:06:44;4.97;;;3.60;;
6089;SDS011;3073;42.660;23.316;2023-04-25T02:09:11;7.27;;;4.37;;
6089;SDS011;3073;42.660;23.316;2023-04-25T02:11:38;4.60;;;3.50;;
6089;SDS011;3073;42.660;23.316;2023-04-25T02:14:06;5.87;;;4.20;;
6089;SDS011;3073;42.660;23.316;2023-04-25T02:16:33;6.90;;;3.70;;
6089;SDS011;3073;42.660;23.316;2023-04-25T02:19:00;6.87;;;4.60;;
6089;SDS011;3073;42.660;23.316;2023-04-25T02:21:27;6.97;;;4.47;;
6089;SDS011;3073;42.660;23.316;2023-04-25T02:23:55;7.63;;;4.30;;
6089;SDS011;3073;42.660;23.316;2023-04-25T02:26:22;6.20;;;4.37;;
6089;SDS011;3073;42.660;23.316;2023-04-25T02:28:50;5.97;;;4.00;;
6089;SDS011;3073;42.660;23.316;2023-04-25T02:31:18;7.47;;;5.87;;
6089;SDS011;3073;42.660;23.316;2023-04-25T02:33:45;7.63;;;5.47;;
6089;SDS011;3073;42.660;23.316;2023-04-25T02:36:12;7.10;;;4.70;;
6089;SDS011;3073;42.660;23.316;2023-04-25T02:38:40;8.17;;;4.70;;
6089;SDS011;3073;42.660;23.316;2023-04-25T02:41:07;8.40;;;5.30;;
6089;SDS011;3073;42.660;23.316;2023-04-25T02:43:34;6.23;;;4.40;;
6089;SDS011;3073;42.660;23.316;2023-04-25T02:46:01;7.00;;;3.70;;
6089;SDS011;3073;42.660;23.316;2023-04-25T02:48:29;7.20;;;5.30;;
6089;SDS011;3073;42.660;23.316;2023-04-25T02:50:56;7.93;;;5.40;;
6089;SDS011;3073;42.660;23.316;2023-04-25T02:53:23;8.00;;;5.20;;
6089;SDS011;3073;42.660;23.316;2023-04-25T02:55:50;8.00;;;4.90;;
6089;SDS011;3073;42.660;23.316;2023-04-25T02:58:17;7.47;;;4.93;;
6089;SDS011;3073;42.660;23.316;2023-04-25T03:00:44;9.67;;;6.40;;
6089;SDS011;3073;42.660;23.316;2023-04-25T03:03:11;10.60;;;5.33;;
6089;SDS011;3073;42.660;23.316;2023-04-25T03:05:39;9.70;;;6.00;;
6089;SDS011;3073;42.660;23.316;2023-04-25T03:08:06;9.13;;;6.13;;
6089;SDS011;3073;42.660;23.316;2023-04-25T03:10:33;9.70;;;6.47;;
6089;SDS011;3073;42.660;23.316;2023-04-25T03:13:00;9.20;;;5.80;;
6089;SDS011;3073;42.660;23.316;2023-04-25T03:15:27;9.77;;;6.80;;
6089;SDS011;3073;42.660;23.316;2023-04-25T03:17:54;9.70;;;5.70;;
6089;SDS011;3073;42.660;23.316;2023-04-25T03:20:21;13.30;;;7.13;;
6089;SDS011;3073;42.660;23.316;2023-04-25T03:22:49;9.67;;;6.30;;
6089;SDS011;3073;42.660;23.316;2023-04-25T03:25:16;8.73;;;6.07;;
6089;SDS011;3073;42.660;23.316;2023-04-25T03:27:43;10.17;;;5.67;;
6089;SDS011;3073;42.660;23.316;2023-04-25T03:30:10;8.83;;;6.33;;
6089;SDS011;3073;42.660;23.316;2023-04-25T03:32:37;7.60;;;5.10;;
6089;SDS011;3073;42.660;23.316;2023-04-25T03:35:04;9.20;;;6.00;;
6089;SDS011;3073;42.660;23.316;2023-04-25T03:37:31;9.47;;;5.37;;
6089;SDS011;3073;42.660;23.316;2023-04-25T03:40:00;13.17;;;5.53;;
6089;SDS011;3073;42.660;23.316;2023-04-25T03:42:27;10.17;;;6.30;;
6089;SDS011;3073;42.660;23.316;2023-04-25T03:44:54;6.97;;;4.73;;
6089;SDS011;3073;42.660;23.316;2023-04-25T03:47:21;13.13;;;6.33;;
6089;SDS011;3073;42.660;23.316;2023-04-25T03:49:48;10.40;;;6.23;;
6089;SDS011;3073;42.660;23.316;2023-04-25T03:52:17;8.63;;;5.33;;
6089;SDS011;3073;42.660;23.316;2023-04-25T03:54:44;7.07;;;4.90;;
6089;SDS011;3073;42.660;23.316;2023-04-25T03:57:12;8.17;;;5.67;;
6089;SDS011;3073;42.660;23.316;2023-04-25T03:59:39;7.47;;;5.00;;
6089;SDS011;3073;42.660;23.316;2023-04-25T04:02:06;7.40;;;4.70;;
6089;SDS011;3073;42.660;23.316;2023-04-25T04:04:33;9.27;;;5.70;;
6089;SDS011;3073;42.660;23.316;2023-04-25T04:07:00;9.60;;;6.03;;
6089;SDS011;3073;42.660;23.316;2023-04-25T04:09:27;7.30;;;5.40;;
6089;SDS011;3073;42.660;23.316;2023-04-25T04:11:54;7.53;;;5.33;;
6089;SDS011;3073;42.660;23.316;2023-04-25T04:14:22;8.70;;;6.43;;
6089;SDS011;3073;42.660;23.316;2023-04-25T04:16:50;8.50;;;4.90;;
6089;SDS011;3073;42.660;23.316;2023-04-25T04:19:17;10.13;;;5.27;;
6089;SDS011;3073;42.660;23.316;2023-04-25T04:21:47;6.70;;;4.87;;
6089;SDS011;3073;42.660;23.316;2023-04-25T04:24:16;9.37;;;5.20;;
6089;SDS011;3073;42.660;23.316;2023-04-25T04:26:43;7.50;;;5.70;;
6089;SDS011;3073;42.660;23.316;2023-04-25T04:29:10;5.97;;;4.73;;
6089;SDS011;3073;42.660;23.316;2023-04-25T04:31:39;8.40;;;5.03;;
6089;SDS011;3073;42.660;23.316;2023-04-25T04:34:08;17.67;;;10.60;;
6089;SDS011;3073;42.660;23.316;2023-04-25T04:36:37;8.27;;;5.57;;
6089;SDS011;3073;42.660;23.316;2023-04-25T04:39:06;12.03;;;7.77;;
6089;SDS011;3073;42.660;23.316;2023-04-25T04:41:34;6.73;;;5.00;;
6089;SDS011;3073;42.660;23.316;2023-04-25T04:44:01;7.10;;;5.60;;
6089;SDS011;3073;42.660;23.316;2023-04-25T04:46:28;5.73;;;4.60;;
6089;SDS011;3073;42.660;23.316;2023-04-25T04:48:56;7.33;;;5.67;;
6089;SDS011;3073;42.660;23.316;2023-04-25T04:51:23;6.50;;;5.27;;
6089;SDS011;3073;42.660;23.316;2023-04-25T04:53:55;5.77;;;4.27;;
6089;SDS011;3073;42.660;23.316;2023-04-25T04:56:23;8.07;;;4.50;;
6089;SDS011;3073;42.660;23.316;2023-04-25T04:58:50;5.77;;;3.80;;
6089;SDS011;3073;42.660;23.316;2023-04-25T05:01:17;5.67;;;4.30;;
6089;SDS011;3073;42.660;23.316;2023-04-25T05:03:44;6.10;;;4.20;;
6089;SDS011;3073;42.660;23.316;2023-04-25T05:06:12;5.80;;;4.80;;
6089;SDS011;3073;42.660;23.316;2023-04-25T05:08:40;6.10;;;4.70;;
6089;SDS011;3073;42.660;23.316;2023-04-25T05:11:06;6.87;;;4.53;;
6089;SDS011;3073;42.660;23.316;2023-04-25T05:13:33;7.97;;;4.97;;
6089;SDS011;3073;42.660;23.316;2023-04-25T05:16:00;8.00;;;4.67;;
6089;SDS011;3073;42.660;23.316;2023-04-25T05:18:27;7.37;;;4.30;;
6089;SDS011;3073;42.660;23.316;2023-04-25T05:20:54;5.87;;;4.40;;
6089;SDS011;3073;42.660;23.316;2023-04-25T05:23:22;9.87;;;5.83;;
6089;SDS011;3073;42.660;23.316;2023-04-25T05:25:49;7.67;;;5.03;;
6089;SDS011;3073;42.660;23.316;2023-04-25T05:28:15;8.83;;;5.40;;
6089;SDS011;3073;42.660;23.316;2023-04-25T05:30:42;8.07;;;5.30;;
6089;SDS011;3073;42.660;23.316;2023-04-25T05:33:09;8.87;;;6.10;;
6089;SDS011;3073;42.660;23.316;2023-04-25T05:35:36;9.80;;;6.00;;
6089;SDS011;3073;42.660;23.316;2023-04-25T05:38:02;13.57;;;6.27;;
6089;SDS011;3073;42.660;23.316;2023-04-25T05:40:31;8.30;;;5.40;;
6089;SDS011;3073;42.660;23.316;2023-04-25T05:42:58;7.30;;;5.40;;
6089;SDS011;3073;42.660;23.316;2023-04-25T05:45:24;11.30;;;6.60;;
6089;SDS011;3073;42.660;23.316;2023-04-25T05:47:51;6.73;;;4.80;;
6089;SDS011;3073;42.660;23.316;2023-04-25T05:50:18;8.37;;;5.60;;
6089;SDS011;3073;42.660;23.316;2023-04-25T05:52:45;9.93;;;5.40;;
6089;SDS011;3073;42.660;23.316;2023-04-25T05:55:12;6.33;;;4.37;;
6089;SDS011;3073;42.660;23.316;2023-04-25T05:57:40;5.30;;;3.97;;
6089;SDS011;3073;42.660;23.316;2023-04-25T06:00:11;7.63;;;4.70;;
6089;SDS011;3073;42.660;23.316;2023-04-25T06:02:40;7.33;;;4.87;;
6089;SDS011;3073;42.660;23.316;2023-04-25T06:05:07;9.73;;;4.90;;
6089;SDS011;3073;42.660;23.316;2023-04-25T06:07:34;8.67;;;4.93;;
6089;SDS011;3073;42.660;23.316;2023-04-25T06:10:01;10.60;;;6.00;;
6089;SDS011;3073;42.660;23.316;2023-04-25T06:12:31;7.70;;;5.03;;
6089;SDS011;3073;42.660;23.316;2023-04-25T06:14:59;5.77;;;4.43;;
6089;SDS011;3073;42.660;23.316;2023-04-25T06:17:26;6.10;;;4.43;;
6089;SDS011;3073;42.660;23.316;2023-04-25T06:19:53;8.97;;;4.83;;
6089;SDS011;3073;42.660;23.316;2023-04-25T06:22:20;7.10;;;4.83;;
6089;SDS011;3073;42.660;23.316;2023-04-25T06:24:46;8.33;;;4.70;;
6089;SDS011;3073;42.660;23.316;2023-04-25T06:27:13;8.00;;;4.90;;
6089;SDS011;3073;42.660;23.316;2023-04-25T06:29:40;6.47;;;3.93;;
6089;SDS011;3073;42.660;23.316;2023-04-25T06:32:08;9.17;;;4.87;;
6089;SDS011;3073;42.660;23.316;2023-04-25T06:34:35;4.87;;;3.50;;
6089;SDS011;3073;42.660;23.316;2023-04-25T06:37:02;5.70;;;3.53;;
6089;SDS011;3073;42.660;23.316;2023-04-25T06:39:29;9.73;;;3.80;;
6089;SDS011;3073;42.660;23.316;2023-04-25T06:41:56;6.30;;;3.83;;
6089;SDS011;3073;42.660;23.316;2023-04-25T06:44:22;7.77;;;4.27;;
6089;SDS011;3073;42.660;23.316;2023-04-25T06:46:51;6.20;;;4.80;;
6089;SDS011;3073;42.660;23.316;2023-04-25T06:49:19;4.47;;;3.23;;
6089;SDS011;3073;42.660;23.316;2023-04-25T06:51:46;4.53;;;2.60;;
6089;SDS011;3073;42.660;23.316;2023-04-25T06:54:12;4.33;;;2.80;;
6089;SDS011;3073;42.660;23.316;2023-04-25T06:56:39;5.73;;;4.30;;
6089;SDS011;3073;42.660;23.316;2023-04-25T06:59:07;10.67;;;4.53;;
6089;SDS011;3073;42.660;23.316;2023-04-25T07:01:34;6.03;;;4.13;;
6089;SDS011;3073;42.660;23.316;2023-04-25T07:04:01;7.23;;;4.63;;
6089;SDS011;3073;42.660;23.316;2023-04-25T07:06:30;9.13;;;5.43;;
6089;SDS011;3073;42.660;23.316;2023-04-25T07:08:57;6.47;;;3.87;;
6089;SDS011;3073;42.660;23.316;2023-04-25T07:11:23;10.43;;;4.60;;
6089;SDS011;3073;42.660;23.316;2023-04-25T07:13:51;7.13;;;4.53;;
6089;SDS011;3073;42.660;23.316;2023-04-25T07:16:17;8.67;;;5.47;;
6089;SDS011;3073;42.660;23.316;2023-04-25T07:18:44;17.03;;;8.63;;
6089;SDS011;3073;42.660;23.316;2023-04-25T07:21:11;7.40;;;4.87;;
6089;SDS011;3073;42.660;23.316;2023-04-25T07:23:39;8.10;;;3.87;;
6089;SDS011;3073;42.660;23.316;2023-04-25T07:26:07;7.30;;;4.27;;
6089;SDS011;3073;42.660;23.316;2023-04-25T07:28:34;7.70;;;3.90;;
6089;SDS011;3073;42.660;23.316;2023-04-25T07:31:01;5.90;;;3.77;;
6089;SDS011;3073;42.660;23.316;2023-04-25T07:33:28;4.23;;;3.43;;
6089;SDS011;3073;42.660;23.316;2023-04-25T07:35:55;6.00;;;3.50;;
6089;SDS011;3073;42.660;23.316;2023-04-25T07:38:23;9.90;;;4.80;;
6089;SDS011;3073;42.660;23.316;2023-04-25T07:40:51;5.53;;;3.90;;
6089;SDS011;3073;42.660;23.316;2023-04-25T07:43:18;6.30;;;4.20;;
6089;SDS011;3073;42.660;23.316;2023-04-25T07:45:45;6.00;;;3.63;;
6089;SDS011;3073;42.660;23.316;2023-04-25T07:48:13;4.43;;;3.50;;
6089;SDS011;3073;42.660;23.316;2023-04-25T07:50:43;4.10;;;2.80;;
6089;SDS011;3073;42.660;23.316;2023-04-25T07:53:10;6.40;;;3.40;;
6089;SDS011;3073;42.660;23.316;2023-04-25T07:55:37;3.63;;;2.93;;
6089;SDS011;3073;42.660;23.316;2023-04-25T07:58:06;4.70;;;3.23;;
6089;SDS011;3073;42.660;23.316;2023-04-25T08:00:33;5.73;;;3.57;;
6089;SDS011;3073;42.660;23.316;2023-04-25T08:03:00;5.73;;;2.83;;
6089;SDS011;3073;42.660;23.316;2023-04-25T08:05:27;5.80;;;3.40;;
6089;SDS011;3073;42.660;23.316;2023-04-25T08:07:54;6.27;;;3.03;;
6089;SDS011;3073;42.660;23.316;2023-04-25T08:10:21;4.63;;;3.43;;
6089;SDS011;3073;42.660;23.316;2023-04-25T08:12:50;5.00;;;3.17;;
6089;SDS011;3073;42.660;23.316;2023-04-25T08:15:18;3.77;;;2.90;;
6089;SDS011;3073;42.660;23.316;2023-04-25T08:17:45;4.30;;;2.87;;
6089;SDS011;3073;42.660;23.316;2023-04-25T08:20:12;6.13;;;3.30;;
6089;SDS011;3073;42.660;23.316;2023-04-25T08:22:38;3.10;;;2.60;;
6089;SDS011;3073;42.660;23.316;2023-04-25T08:25:05;3.40;;;2.80;;
6089;SDS011;3073;42.660;23.316;2023-04-25T08:27:32;3.93;;;2.53;;
6089;SDS011;3073;42.660;23.316;2023-04-25T08:29:59;3.03;;;2.60;;
6089;SDS011;3073;42.660;23.316;2023-04-25T08:32:29;4.73;;;3.40;;
6089;SDS011;3073;42.660;23.316;2023-04-25T08:34:56;4.90;;;2.57;;
6089;SDS011;3073;42.660;23.316;2023-04-25T08:37:23;8.40;;;2.80;;
6089;SDS011;3073;42.660;23.316;2023-04-25T08:39:50;1.80;;;1.30;;
6089;SDS011;3073;42.660;23.316;2023-04-25T08:42:18;2.73;;;1.93;;
6089;SDS011;3073;42.660;23.316;2023-04-25T08:44:48;3.20;;;2.60;;
6089;SDS011;3073;42.660;23.316;2023-04-25T08:47:15;4.87;;;2.60;;
6089;SDS011;3073;42.660;23.316;2023-04-25T08:49:47;3.93;;;2.80;;
6089;SDS011;3073;42.660;23.316;2023-04-25T08:52:15;6.53;;;2.80;;
6089;SDS011;3073;42.660;23.316;2023-04-25T08:54:48;3.53;;;3.00;;
6089;SDS011;3073;42.660;23.316;2023-04-25T08:57:16;3.90;;;2.80;;
6089;SDS011;3073;42.660;23.316;2023-04-25T08:59:44;5.17;;;3.47;;
6089;SDS011;3073;42.660;23.316;2023-04-25T09:02:13;6.00;;;3.70;;
6089;SDS011;3073;42.660;23.316;2023-04-25T09:04:42;5.20;;;3.10;;
6089;SDS011;3073;42.660;23.316;2023-04-25T09:07:11;6.53;;;3.13;;
6089;SDS011;3073;42.660;23.316;2023-04-25T09:09:40;4.33;;;3.50;;
6089;SDS011;3073;42.660;23.316;2023-04-25T09:12:07;3.33;;;2.77;;
6089;SDS011;3073;42.660;23.316;2023-04-25T09:14:34;4.00;;;3.10;;
6089;SDS011;3073;42.660;23.316;2023-04-25T09:17:04;2.63;;;2.30;;
6089;SDS011;3073;42.660;23.316;2023-04-25T09:19:33;4.10;;;2.80;;
6089;SDS011;3073;42.660;23.316;2023-04-25T09:22:03;6.30;;;3.20;;
6089;SDS011;3073;42.660;23.316;2023-04-25T09:24:33;3.73;;;2.27;;
6089;SDS011;3073;42.660;23.316;2023-04-25T09:27:05;4.03;;;2.60;;
6089;SDS011;3073;42.660;23.316;2023-04-25T09:29:33;3.63;;;2.40;;
6089;SDS011;3073;42.660;23.316;2023-04-25T09:32:10;2.63;;;1.70;;
6089;SDS011;3073;42.660;23.316;2023-04-25T09:34:39;3.07;;;2.30;;
6089;SDS011;3073;42.660;23.316;2023-04-25T09:37:07;3.00;;;2.27;;
6089;SDS011;3073;42.660;23.316;2023-04-25T09:39:36;3.33;;;2.30;;
6089;SDS011;3073;42.660;23.316;2023-04-25T09:42:03;4.00;;;2.50;;
6089;SDS011;3073;42.660;23.316;2023-04-25T09:44:31;4.50;;;2.57;;
6089;SDS011;3073;42.660;23.316;2023-04-25T09:46:58;3.40;;;2.10;;
6089;SDS011;3073;42.660;23.316;2023-04-25T09:49:25;4.97;;;2.67;;
6089;SDS011;3073;42.660;23.316;2023-04-25T09:51:53;4.00;;;3.07;;
6089;SDS011;3073;42.660;23.316;2023-04-25T09:54:21;5.90;;;3.17;;
6089;SDS011;3073;42.660;23.316;2023-04-25T09:56:51;3.17;;;2.60;;
6089;SDS011;3073;42.660;23.316;2023-04-25T09:59:19;4.47;;;2.80;;
6089;SDS011;3073;42.660;23.316;2023-04-25T10:01:47;4.97;;;2.50;;
6089;SDS011;3073;42.660;23.316;2023-04-25T10:04:16;4.17;;;3.20;;
6089;SDS011;3073;42.660;23.316;2023-04-25T10:06:48;5.00;;;2.83;;
6089;SDS011;3073;42.660;23.316;2023-04-25T10:09:17;3.00;;;1.80;;
6089;SDS011;3073;42.660;23.316;2023-04-25T10:11:46;2.97;;;1.90;;
6089;SDS011;3073;42.660;23.316;2023-04-25T10:14:15;3.07;;;2.20;;
6089;SDS011;3073;42.660;23.316;2023-04-25T10:16:42;2.90;;;1.30;;
6089;SDS011;3073;42.660;23.316;2023-04-25T10:19:11;2.17;;;0.67;;
6089;SDS011;3073;42.660;23.316;2023-04-25T10:21:50;1.10;;;0.60;;
6089;SDS011;3073;42.660;23.316;2023-04-25T10:24:20;1.00;;;0.60;;
6089;SDS011;3073;42.660;23.316;2023-04-25T10:26:48;3.10;;;1.00;;
6089;SDS011;3073;42.660;23.316;2023-04-25T10:29:22;1.93;;;0.80;;
6089;SDS011;3073;42.660;23.316;2023-04-25T10:31:50;1.90;;;0.90;;
6089;SDS011;3073;42.660;23.316;2023-04-25T10:34:17;2.50;;;0.90;;
6089;SDS011;3073;42.660;23.316;2023-04-25T10:36:48;1.73;;;0.87;;
6089;SDS011;3073;42.660;23.316;2023-04-25T10:39:21;1.20;;;0.73;;
6089;SDS011;3073;42.660;23.316;2023-04-25T10:41:53;1.80;;;1.03;;
6089;SDS011;3073;42.660;23.316;2023-04-25T10:44:23;1.20;;;0.60;;
6089;SDS011;3073;42.660;23.316;2023-04-25T10:46:54;1.30;;;0.80;;
6089;SDS011;3073;42.660;23.316;2023-04-25T10:49:28;1.20;;;0.80;;
6089;SDS011;3073;42.660;23.316;2023-04-25T10:52:12;1.50;;;0.87;;
6089;SDS011;3073;42.660;23.316;2023-04-25T10:54:41;1.57;;;0.70;;
6089;SDS011;3073;42.660;23.316;2023-04-25T10:59:55;1.00;;;0.53;;
6089;SDS011;3073;42.660;23.316;2023-04-25T11:02:26;1.40;;;0.70;;
6089;SDS011;3073;42.660;23.316;2023-04-25T11:04:54;2.30;;;0.80;;
6089;SDS011;3073;42.660;23.316;2023-04-25T11:07:23;1.70;;;0.67;;
6089;SDS011;3073;42.660;23.316;2023-04-25T11:10:01;1.20;;;0.60;;
6089;SDS011;3073;42.660;23.316;2023-04-25T11:12:29;3.70;;;0.90;;
6089;SDS011;3073;42.660;23.316;2023-04-25T11:15:01;1.10;;;0.70;;
6089;SDS011;3073;42.660;23.316;2023-04-25T11:17:29;1.20;;;0.67;;
6089;SDS011;3073;42.660;23.316;2023-04-25T11:19:57;1.00;;;0.53;;
6089;SDS011;3073;42.660;23.316;2023-04-25T11:22:25;1.60;;;0.70;;
6089;SDS011;3073;42.660;23.316;2023-04-25T11:24:53;1.00;;;0.50;;
6089;SDS011;3073;42.660;23.316;2023-04-25T11:27:20;1.20;;;0.63;;
6089;SDS011;3073;42.660;23.316;2023-04-25T11:29:49;1.10;;;0.60;;
6089;SDS011;3073;42.660;23.316;2023-04-25T11:32:18;1.43;;;0.80;;
6089;SDS011;3073;42.660;23.316;2023-04-25T11:34:46;1.63;;;0.60;;
6089;SDS011;3073;42.660;23.316;2023-04-25T11:37:13;1.30;;;0.70;;
6089;SDS011;3073;42.660;23.316;2023-04-25T11:39:43;1.20;;;0.67;;
6089;SDS011;3073;42.660;23.316;2023-04-25T11:42:11;1.60;;;0.90;;
6089;SDS011;3073;42.660;23.316;2023-04-25T11:44:38;1.20;;;0.60;;
6089;SDS011;3073;42.660;23.316;2023-04-25T11:47:06;8.10;;;0.80;;
6089;SDS011;3073;42.660;23.316;2023-04-25T11:49:35;1.30;;;0.70;;
6089;SDS011;3073;42.660;23.316;2023-04-25T11:52:02;1.13;;;0.67;;
6089;SDS011;3073;42.660;23.316;2023-04-25T11:54:29;1.20;;;0.70;;
6089;SDS011;3073;42.660;23.316;2023-04-25T11:56:55;1.40;;;0.70;;
6089;SDS011;3073;42.660;23.316;2023-04-25T11:59:23;2.53;;;0.80;;
6089;SDS011;3073;42.660;23.316;2023-04-25T12:01:51;1.80;;;1.07;;
6089;SDS011;3073;42.660;23.316;2023-04-25T12:04:19;2.53;;;1.07;;
6089;SDS011;3073;42.660;23.316;2023-04-25T12:06:49;1.83;;;1.00;;
6089;SDS011;3073;42.660;23.316;2023-04-25T12:09:17;1.73;;;0.87;;
6089;SDS011;3073;42.660;23.316;2023-04-25T12:11:47;1.40;;;0.77;;
6089;SDS011;3073;42.660;23.316;2023-04-25T12:14:20;1.57;;;0.90;;
6089;SDS011;3073;42.660;23.316;2023-04-25T12:16:49;1.60;;;0.70;;
6089;SDS011;3073;42.660;23.316;2023-04-25T12:19:16;1.20;;;0.87;;
6089;SDS011;3073;42.660;23.316;2023-04-25T12:21:44;1.10;;;0.60;;
6089;SDS011;3073;42.660;23.316;2023-04-25T12:24:13;1.50;;;0.90;;
6089;SDS011;3073;42.660;23.316;2023-04-25T12:26:50;3.47;;;0.93;;
6089;SDS011;3073;42.660;23.316;2023-04-25T12:29:19;1.30;;;0.80;;
6089;SDS011;3073;42.660;23.316;2023-04-25T12:31:47;2.07;;;1.40;;
6089;SDS011;3073;42.660;23.316;2023-04-25T12:34:14;1.03;;;0.63;;
6089;SDS011;3073;42.660;23.316;2023-04-25T12:36:44;1.63;;;0.90;;
6089;SDS011;3073;42.660;23.316;2023-04-25T12:39:17;1.40;;;0.70;;
6089;SDS011;3073;42.660;23.316;2023-04-25T12:41:45;1.47;;;0.60;;
6089;SDS011;3073;42.660;23.316;2023-04-25T12:44:12;1.00;;;0.40;;
6089;SDS011;3073;42.660;23.316;2023-04-25T12:46:39;1.50;;;0.57;;
6089;SDS011;3073;42.660;23.316;2023-04-25T12:49:07;1.30;;;0.80;;
6089;SDS011;3073;42.660;23.316;2023-04-25T12:51:37;1.27;;;0.60;;
6089;SDS011;3073;42.660;23.316;2023-04-25T12:54:05;1.30;;;0.63;;
6089;SDS011;3073;42.660;23.316;2023-04-25T12:56:42;1.77;;;0.80;;
6089;SDS011;3073;42.660;23.316;2023-04-25T12:59:09;5.60;;;0.80;;
6089;SDS011;3073;42.660;23.316;2023-04-25T13:01:39;1.60;;;0.90;;
6089;SDS011;3073;42.660;23.316;2023-04-25T13:04:09;1.47;;;0.80;;
6089;SDS011;3073;42.660;23.316;2023-04-25T13:07:35;1.60;;;1.03;;
6089;SDS011;3073;42.660;23.316;2023-04-25T13:10:14;1.23;;;0.93;;
6089;SDS011;3073;42.660;23.316;2023-04-25T13:13:09;3.77;;;1.37;;
6089;SDS011;3073;42.660;23.316;2023-04-25T13:16:02;1.30;;;0.80;;
6089;SDS011;3073;42.660;23.316;2023-04-25T13:18:50;1.30;;;0.90;;
6089;SDS011;3073;42.660;23.316;2023-04-25T13:21:30;1.30;;;0.83;;
6089;SDS011;3073;42.660;23.316;2023-04-25T13:24:09;1.40;;;1.00;;
6089;SDS011;3073;42.660;23.316;2023-04-25T13:27:05;1.60;;;0.93;;
6089;SDS011;3073;42.660;23.316;2023-04-25T13:29:37;3.60;;;1.20;;
6089;SDS011;3073;42.660;23.316;2023-04-25T13:32:05;3.73;;;1.10;;
6089;SDS011;3073;42.660;23.316;2023-04-25T13:34:32;1.40;;;0.90;;
6089;SDS011;3073;42.660;23.316;2023-04-25T13:36:59;3.20;;;1.67;;
6089;SDS011;3073;42.660;23.316;2023-04-25T13:39:26;2.23;;;1.43;;
6089;SDS011;3073;42.660;23.316;2023-04-25T13:41:53;2.50;;;1.60;;
6089;SDS011;3073;42.660;23.316;2023-04-25T13:44:21;1.57;;;1.00;;
6089;SDS011;3073;42.660;23.316;2023-04-25T13:46:50;1.50;;;1.10;;
6089;SDS011;3073;42.660;23.316;2023-04-25T13:49:25;1.43;;;1.10;;
6089;SDS011;3073;42.660;23.316;2023-04-25T13:51:52;1.33;;;0.97;;
6089;SDS011;3073;42.660;23.316;2023-04-25T13:54:19;1.73;;;0.87;;
6089;SDS011;3073;42.660;23.316;2023-04-25T13:56:46;3.87;;;1.03;;
6089;SDS011;3073;42.660;23.316;2023-04-25T13:59:13;1.73;;;1.17;;
6089;SDS011;3073;42.660;23.316;2023-04-25T14:01:41;3.37;;;1.10;;
6089;SDS011;3073;42.660;23.316;2023-04-25T14:04:09;1.37;;;1.00;;
6089;SDS011;3073;42.660;23.316;2023-04-25T14:06:36;1.00;;;0.70;;
6089;SDS011;3073;42.660;23.316;2023-04-25T14:09:03;1.40;;;0.93;;
6089;SDS011;3073;42.660;23.316;2023-04-25T14:11:33;1.30;;;0.80;;
6089;SDS011;3073;42.660;23.316;2023-04-25T14:14:00;2.90;;;0.90;;
6089;SDS011;3073;42.660;23.316;2023-04-25T14:16:27;1.17;;;0.67;;
6089;SDS011;3073;42.660;23.316;2023-04-25T14:18:54;1.57;;;1.10;;
6089;SDS011;3073;42.660;23.316;2023-04-25T14:21:22;1.20;;;0.90;;
6089;SDS011;3073;42.660;23.316;2023-04-25T14:23:59;1.53;;;0.97;;
6089;SDS011;3073;42.660;23.316;2023-04-25T14:26:36;1.60;;;1.10;;
6089;SDS011;3073;42.660;23.316;2023-04-25T14:29:03;1.60;;;1.10;;
6089;SDS011;3073;42.660;23.316;2023-04-25T14:31:31;2.07;;;0.83;;
6089;SDS011;3073;42.660;23.316;2023-04-25T14:33:58;1.00;;;0.53;;
6089;SDS011;3073;42.660;23.316;2023-04-25T14:36:26;1.30;;;0.80;;
6089;SDS011;3073;42.660;23.316;2023-04-25T14:38:55;1.50;;;0.97;;
6089;SDS011;3073;42.660;23.316;2023-04-25T14:41:22;1.93;;;1.30;;
6089;SDS011;3073;42.660;23.316;2023-04-25T14:43:50;1.80;;;0.80;;
6089;SDS011;3073;42.660;23.316;2023-04-25T14:46:17;1.70;;;1.10;;
6089;SDS011;3073;42.660;23.316;2023-04-25T14:48:44;2.80;;;1.30;;
6089;SDS011;3073;42.660;23.316;2023-04-25T14:51:12;1.20;;;0.80;;
6089;SDS011;3073;42.660;23.316;2023-04-25T14:53:40;1.40;;;1.00;;
6089;SDS011;3073;42.660;23.316;2023-04-25T14:56:08;1.77;;;0.97;;
6089;SDS011;3073;42.660;23.316;2023-04-25T14:58:35;1.70;;;1.17;;
6089;SDS011;3073;42.660;23.316;2023-04-25T15:01:02;1.20;;;0.80;;
6089;SDS011;3073;42.660;23.316;2023-04-25T15:03:31;1.37;;;0.70;;
6089;SDS011;3073;42.660;23.316;2023-04-25T15:05:58;1.70;;;1.00;;
6089;SDS011;3073;42.660;23.316;2023-04-25T15:08:26;2.33;;;1.20;;
6089;SDS011;3073;42.660;23.316;2023-04-25T15:10:55;2.00;;;1.03;;